Terminal Aerodrome Forecast
Issued by NWS

Current Version | Previous Version | Graphics & Text | Print | Product List | Glossary On
Versions: 1 2 3 4 5 6 7 8 9 10 11 12 13 14
000
FTUS41 KPBZ 200520
TAFMGW
TAF
KMGW 200520Z 2006/2106 21010KT P6SM SKC
     FM201500 23012G20KT P6SM BKN250
     FM210300 22008KT P6SM OVC015=

USA.gov is the U.S. government's official web portal to all federal, state and local government web resources and services.